Terminal Aerodrome Forecast
Issued by NWS

Home | Current Version | Previous Version | Text Only | Print | Product List | Glossary On
Versions: 1 2 3 4 5 6 7 8 9 10 11 12 13 14 15 16 17 18 19 20 21 22 23 24 25 26 27 28
000
FTPA31 PHFO 222321
TAFHJR
TAF
PHJR 222321Z 2300/2324 22010KT P6SM FEW025 SCT045
     FM230100 17008KT P6SM VCSH SCT025 BKN045
     FM230400 VRB05KT P6SM VCSH SCT025 BKN045
     FM230700 07006KT P6SM FEW025 SCT045
     FM232000 11007KT P6SM FEW025 SCT045=

USA.gov is the U.S. government's official web portal to all federal, state and local government web resources and services.